Time;durP1;ratioP1;P1;durP2;ratioP2;P2;SDS_P1;SDS_P2;PMS_P1;PMS_P2;Temp;Humidity;BMP_temperature;BMP_pressure;BME280_temperature;BME280_humidity;BME280_pressure;Samples;Min_cycle;Max_cycle;Signal;HPM_P1;HPM_P2
2022/04/07 14:53:49;;;;;;;0.20;0.10;;;25.70;99.90;;;;;;25442736;23;20207;-69
2022/04/07 15:03:53;;;;;;;0.20;0.00;;;27.00;99.90;;;;;;25395201;23;20247;-69
2022/04/07 15:13:58;;;;;;;0.20;0.00;;;26.00;99.90;;;;;;25396490;23;20203;-75
2022/04/07 15:24:02;;;;;;;0.20;0.15;;;26.50;99.90;;;;;;25397500;23;20168;-75
2022/04/07 15:34:07;;;;;;;0.20;0.00;;;25.20;99.90;;;;;;25427017;23;20207;-74
2022/04/07 15:44:11;;;;;;;0.20;0.00;;;24.90;99.90;;;;;;25404253;23;20167;-74
2022/04/07 15:54:17;;;;;;;0.20;0.00;;;23.20;99.90;;;;;;25406012;23;20202;-78
2022/04/07 16:04:21;;;;;;;0.20;0.10;;;22.00;99.90;;;;;;25401201;23;20202;-69
2022/04/07 16:14:26;;;;;;;0.20;0.00;;;20.00;99.90;;;;;;25388306;23;20210;-70
2022/04/07 16:24:30;;;;;;;0.20;0.10;;;19.80;99.90;;;;;;25365015;23;20171;-70
2022/04/07 16:34:35;;;;;;;0.20;0.00;;;19.80;99.90;;;;;;25379646;23;20207;-70
2022/04/07 16:44:39;;;;;;;0.20;0.00;;;20.00;99.90;;;;;;25377159;23;20175;-70
2022/04/07 16:54:44;;;;;;;0.20;0.17;;;19.90;99.90;;;;;;25386140;23;20303;-67
2022/04/07 17:04:48;;;;;;;0.20;0.10;;;19.80;99.90;;;;;;25369812;23;20198;-77
2022/04/07 17:14:53;;;;;;;0.20;0.00;;;19.30;99.90;;;;;;25365149;23;20203;-76
2022/04/07 17:24:58;;;;;;;0.20;0.00;;;19.40;99.90;;;;;;25392756;23;20182;-63
2022/04/07 17:35:03;;;;;;;0.20;0.00;;;18.60;99.90;;;;;;25390015;23;20192;-63
2022/04/07 17:45:08;;;;;;;0.20;0.10;;;19.50;99.90;;;;;;25389234;23;20219;-64
2022/04/07 17:55:14;;;;;;;0.20;0.10;;;18.70;99.90;;;;;;25388626;23;20217;-65
2022/04/07 18:05:18;;;;;;;0.20;0.10;;;19.20;99.90;;;;;;25363790;23;20183;-63
2022/04/07 18:15:23;;;;;;;0.20;0.10;;;19.20;99.90;;;;;;25387594;23;20209;-65
2022/04/07 18:25:27;;;;;;;0.20;0.00;;;18.50;99.90;;;;;;25387610;23;20239;-64
2022/04/07 18:35:32;;;;;;;0.20;0.10;;;17.30;99.90;;;;;;25396019;23;20222;-64
2022/04/07 18:45:37;;;;;;;0.20;0.10;;;16.60;99.90;;;;;;25394175;23;20195;-64
2022/04/07 18:55:42;;;;;;;0.20;0.10;;;16.70;99.90;;;;;;25397644;23;20199;-63
2022/04/07 19:05:46;;;;;;;0.20;0.10;;;17.00;99.90;;;;;;25393730;23;20194;-64
2022/04/07 19:15:51;;;;;;;0.20;0.00;;;16.80;99.90;;;;;;25368937;23;20199;-62
2022/04/07 19:25:57;;;;;;;0.97;0.97;;;16.80;99.90;;;;;;25392487;23;20167;-63
2022/04/07 19:36:02;;;;;;;0.20;0.00;;;16.80;99.90;;;;;;25389979;23;20274;-64
2022/04/07 19:46:06;;;;;;;0.20;0.10;;;16.80;99.90;;;;;;25390382;23;20227;-63
2022/04/07 19:56:12;;;;;;;0.20;0.10;;;16.40;99.90;;;;;;25388206;23;20203;-64
2022/04/07 20:06:16;;;;;;;0.20;0.10;;;16.60;99.90;;;;;;25389642;23;20239;-64
2022/04/07 20:16:21;;;;;;;0.20;0.10;;;16.60;99.90;;;;;;25390791;23;20837;-65
2022/04/07 20:26:29;;;;;;;0.20;0.10;;;16.60;99.90;;;;;;25392711;23;20247;-65
2022/04/07 20:36:35;;;;;;;0.20;0.10;;;16.70;99.90;;;;;;25397542;23;20247;-64
2022/04/07 20:46:38;;;;;;;0.20;0.10;;;16.80;99.90;;;;;;25374417;23;20265;-65
2022/04/07 20:56:44;;;;;;;0.20;0.10;;;16.40;99.90;;;;;;25393941;23;20242;-64
2022/04/07 21:06:48;;;;;;;0.20;0.00;;;16.10;99.90;;;;;;25390378;23;20244;-64
2022/04/07 21:16:54;;;;;;;0.20;0.10;;;15.80;99.90;;;;;;25403898;23;20206;-63
2022/04/07 21:27:01;;;;;;;0.20;0.10;;;15.80;99.90;;;;;;25401758;23;20175;-62
2022/04/07 21:37:07;;;;;;;0.20;0.00;;;15.50;99.90;;;;;;25375332;23;20197;-63
2022/04/07 21:47:12;;;;;;;0.20;0.00;;;15.20;99.90;;;;;;25373838;23;20202;-66
2022/04/07 21:57:17;;;;;;;0.20;0.10;;;15.20;99.90;;;;;;25401124;23;20221;-63
2022/04/07 22:07:21;;;;;;;0.20;0.10;;;15.40;99.90;;;;;;25401701;23;20171;-64
2022/04/07 22:17:28;;;;;;;0.20;0.00;;;15.20;99.90;;;;;;25400852;23;20242;-63
2022/04/07 22:27:32;;;;;;;0.20;0.10;;;15.10;99.90;;;;;;25396959;23;20210;-65
2022/04/07 22:37:37;;;;;;;0.20;0.00;;;15.40;99.90;;;;;;25392113;23;20587;-64
2022/04/07 22:47:42;;;;;;;0.20;0.00;;;15.20;99.90;;;;;;25367955;23;20179;-65
2022/04/07 22:57:47;;;;;;;0.20;0.00;;;15.20;99.90;;;;;;25391166;23;20207;-64
2022/04/07 23:07:51;;;;;;;0.20;0.10;;;14.70;99.90;;;;;;25392128;23;20221;-65
2022/04/07 23:17:59;;;;;;;0.20;0.00;;;14.60;99.90;;;;;;25390537;23;20203;-64
2022/04/07 23:28:03;;;;;;;0.20;0.00;;;14.00;99.90;;;;;;25390836;23;20467;-63
2022/04/07 23:38:08;;;;;;;0.20;0.00;;;14.20;99.90;;;;;;25392556;23;20203;-63
2022/04/07 23:48:12;;;;;;;0.20;0.10;;;14.30;99.90;;;;;;25393217;23;20783;-63
2022/04/07 23:58:17;;;;;;;0.20;0.10;;;14.00;99.90;;;;;;25390188;23;20575;-63
